sensor_id;sensor_type;location;lat;lon;timestamp;temperature;humidity
26164;DHT22;13914;48.178;11.716;2022-09-01T00:01:21;15.70;81.00
26164;DHT22;13914;48.178;11.716;2022-09-01T00:03:55;15.70;81.30
26164;DHT22;13914;48.178;11.716;2022-09-01T00:06:31;15.70;80.50
26164;DHT22;13914;48.178;11.716;2022-09-01T00:09:01;15.70;80.50
26164;DHT22;13914;48.178;11.716;2022-09-01T00:11:30;15.60;79.60
26164;DHT22;13914;48.178;11.716;2022-09-01T00:13:57;15.70;80.00
26164;DHT22;13914;48.178;11.716;2022-09-01T00:16:23;15.70;80.60
26164;DHT22;13914;48.178;11.716;2022-09-01T00:18:51;15.70;80.40
26164;DHT22;13914;48.178;11.716;2022-09-01T00:21:22;15.60;81.10
26164;DHT22;13914;48.178;11.716;2022-09-01T00:23:52;15.60;80.30
26164;DHT22;13914;48.178;11.716;2022-09-01T00:26:18;15.60;80.80
26164;DHT22;13914;48.178;11.716;2022-09-01T00:28:44;15.60;79.60
26164;DHT22;13914;48.178;11.716;2022-09-01T00:31:10;15.60;80.00
26164;DHT22;13914;48.178;11.716;2022-09-01T00:33:36;15.60;79.80
26164;DHT22;13914;48.178;11.716;2022-09-01T00:36:03;15.60;80.30
26164;DHT22;13914;48.178;11.716;2022-09-01T00:38:30;15.60;80.30
26164;DHT22;13914;48.178;11.716;2022-09-01T00:40:56;15.60;79.70
26164;DHT22;13914;48.178;11.716;2022-09-01T00:46:20;15.60;80.30
26164;DHT22;13914;48.178;11.716;2022-09-01T00:48:53;15.60;80.30
26164;DHT22;13914;48.178;11.716;2022-09-01T00:51:22;15.60;80.00
26164;DHT22;13914;48.178;11.716;2022-09-01T00:53:48;15.60;80.40
26164;DHT22;13914;48.178;11.716;2022-09-01T00:56:14;15.50;80.40
26164;DHT22;13914;48.178;11.716;2022-09-01T00:58:41;15.50;80.30
26164;DHT22;13914;48.178;11.716;2022-09-01T01:01:08;15.50;81.00
26164;DHT22;13914;48.178;11.716;2022-09-01T01:03:34;15.50;80.60
26164;DHT22;13914;48.178;11.716;2022-09-01T01:06:04;15.50;80.20
26164;DHT22;13914;48.178;11.716;2022-09-01T01:08:34;15.50;80.90
26164;DHT22;13914;48.178;11.716;2022-09-01T01:11:04;15.50;80.70
26164;DHT22;13914;48.178;11.716;2022-09-01T01:13:57;15.50;80.80
26164;DHT22;13914;48.178;11.716;2022-09-01T01:16:25;15.50;80.70
26164;DHT22;13914;48.178;11.716;2022-09-01T01:18:53;15.50;80.80
26164;DHT22;13914;48.178;11.716;2022-09-01T01:21:20;15.50;80.70
26164;DHT22;13914;48.178;11.716;2022-09-01T01:24:25;15.50;80.80
26164;DHT22;13914;48.178;11.716;2022-09-01T01:26:52;15.40;81.10
26164;DHT22;13914;48.178;11.716;2022-09-01T01:29:21;15.40;81.00
26164;DHT22;13914;48.178;11.716;2022-09-01T01:31:49;15.40;81.30
26164;DHT22;13914;48.178;11.716;2022-09-01T01:34:17;15.40;81.30
26164;DHT22;13914;48.178;11.716;2022-09-01T01:36:44;15.40;79.80
26164;DHT22;13914;48.178;11.716;2022-09-01T01:39:14;15.40;80.40
26164;DHT22;13914;48.178;11.716;2022-09-01T01:41:46;15.40;80.30
26164;DHT22;13914;48.178;11.716;2022-09-01T01:44:16;15.40;80.30
26164;DHT22;13914;48.178;11.716;2022-09-01T01:46:52;15.40;81.10
26164;DHT22;13914;48.178;11.716;2022-09-01T01:49:21;15.40;81.50
26164;DHT22;13914;48.178;11.716;2022-09-01T01:51:51;15.40;81.10
26164;DHT22;13914;48.178;11.716;2022-09-01T01:54:21;15.40;81.40
26164;DHT22;13914;48.178;11.716;2022-09-01T01:56:48;15.30;81.70
26164;DHT22;13914;48.178;11.716;2022-09-01T01:59:14;15.40;80.50
26164;DHT22;13914;48.178;11.716;2022-09-01T02:01:42;15.40;80.60
26164;DHT22;13914;48.178;11.716;2022-09-01T02:04:14;15.40;80.90
26164;DHT22;13914;48.178;11.716;2022-09-01T02:06:42;15.30;80.90
26164;DHT22;13914;48.178;11.716;2022-09-01T02:09:11;15.30;81.40
26164;DHT22;13914;48.178;11.716;2022-09-01T02:11:39;15.30;80.50
26164;DHT22;13914;48.178;11.716;2022-09-01T02:14:06;15.30;80.10
26164;DHT22;13914;48.178;11.716;2022-09-01T02:16:33;15.30;80.90
26164;DHT22;13914;48.178;11.716;2022-09-01T02:19:02;15.30;81.20
26164;DHT22;13914;48.178;11.716;2022-09-01T02:21:29;15.30;80.90
26164;DHT22;13914;48.178;11.716;2022-09-01T02:23:57;15.30;80.90
26164;DHT22;13914;48.178;11.716;2022-09-01T02:26:32;15.30;80.60
26164;DHT22;13914;48.178;11.716;2022-09-01T02:29:06;15.20;80.00
26164;DHT22;13914;48.178;11.716;2022-09-01T02:31:43;15.20;80.50
26164;DHT22;13914;48.178;11.716;2022-09-01T02:34:10;15.20;80.60
26164;DHT22;13914;48.178;11.716;2022-09-01T02:36:42;15.20;81.00
26164;DHT22;13914;48.178;11.716;2022-09-01T02:39:14;15.20;81.10
26164;DHT22;13914;48.178;11.716;2022-09-01T02:41:40;15.20;80.00
26164;DHT22;13914;48.178;11.716;2022-09-01T02:44:06;15.20;79.80
26164;DHT22;13914;48.178;11.716;2022-09-01T02:46:40;15.20;80.00
26164;DHT22;13914;48.178;11.716;2022-09-01T02:49:13;15.20;80.50
26164;DHT22;13914;48.178;11.716;2022-09-01T02:51:49;15.20;80.10
26164;DHT22;13914;48.178;11.716;2022-09-01T02:54:19;15.10;80.30
26164;DHT22;13914;48.178;11.716;2022-09-01T02:56:48;15.10;80.80
26164;DHT22;13914;48.178;11.716;2022-09-01T02:59:19;15.10;81.00
26164;DHT22;13914;48.178;11.716;2022-09-01T03:01:49;15.10;81.10
26164;DHT22;13914;48.178;11.716;2022-09-01T03:04:16;15.10;80.00
26164;DHT22;13914;48.178;11.716;2022-09-01T03:06:43;15.10;81.10
26164;DHT22;13914;48.178;11.716;2022-09-01T03:09:13;15.10;79.90
26164;DHT22;13914;48.178;11.716;2022-09-01T03:11:43;15.10;79.90
26164;DHT22;13914;48.178;11.716;2022-09-01T03:14:12;15.00;79.70
26164;DHT22;13914;48.178;11.716;2022-09-01T03:16:38;15.10;79.60
26164;DHT22;13914;48.178;11.716;2022-09-01T03:19:05;15.00;80.60
26164;DHT22;13914;48.178;11.716;2022-09-01T03:21:35;15.00;81.30
26164;DHT22;13914;48.178;11.716;2022-09-01T03:24:09;15.00;81.20
26164;DHT22;13914;48.178;11.716;2022-09-01T03:26:40;14.90;81.00
26164;DHT22;13914;48.178;11.716;2022-09-01T03:29:07;14.90;80.80
26164;DHT22;13914;48.178;11.716;2022-09-01T03:31:33;14.90;81.10
26164;DHT22;13914;48.178;11.716;2022-09-01T03:34:00;14.90;81.20
26164;DHT22;13914;48.178;11.716;2022-09-01T03:36:28;14.90;80.90
26164;DHT22;13914;48.178;11.716;2022-09-01T03:38:55;14.80;81.00
26164;DHT22;13914;48.178;11.716;2022-09-01T03:41:25;14.80;81.30
26164;DHT22;13914;48.178;11.716;2022-09-01T03:43:53;14.80;81.20
26164;DHT22;13914;48.178;11.716;2022-09-01T03:46:21;14.80;81.40
26164;DHT22;13914;48.178;11.716;2022-09-01T03:48:58;14.80;80.90
26164;DHT22;13914;48.178;11.716;2022-09-01T03:51:27;14.80;81.80
26164;DHT22;13914;48.178;11.716;2022-09-01T03:53:55;14.80;82.10
26164;DHT22;13914;48.178;11.716;2022-09-01T03:56:22;14.70;81.70
26164;DHT22;13914;48.178;11.716;2022-09-01T03:58:50;14.70;81.50
26164;DHT22;13914;48.178;11.716;2022-09-01T04:01:16;14.70;82.70
26164;DHT22;13914;48.178;11.716;2022-09-01T04:03:43;14.70;82.00
26164;DHT22;13914;48.178;11.716;2022-09-01T04:06:14;14.70;81.50
26164;DHT22;13914;48.178;11.716;2022-09-01T04:08:43;14.70;81.50
26164;DHT22;13914;48.178;11.716;2022-09-01T04:11:13;14.60;80.80
26164;DHT22;13914;48.178;11.716;2022-09-01T04:13:43;14.70;80.60
26164;DHT22;13914;48.178;11.716;2022-09-01T04:19:04;14.60;81.20
26164;DHT22;13914;48.178;11.716;2022-09-01T04:21:45;14.60;80.60
26164;DHT22;13914;48.178;11.716;2022-09-01T04:24:12;14.60;80.70
26164;DHT22;13914;48.178;11.716;2022-09-01T04:26:40;14.60;80.70
26164;DHT22;13914;48.178;11.716;2022-09-01T04:29:06;14.50;80.80
26164;DHT22;13914;48.178;11.716;2022-09-01T04:31:35;14.50;81.50
26164;DHT22;13914;48.178;11.716;2022-09-01T04:34:03;14.50;81.10
26164;DHT22;13914;48.178;11.716;2022-09-01T04:36:39;14.50;81.50
26164;DHT22;13914;48.178;11.716;2022-09-01T04:39:07;14.50;81.10
26164;DHT22;13914;48.178;11.716;2022-09-01T04:41:40;14.50;81.20
26164;DHT22;13914;48.178;11.716;2022-09-01T04:44:11;14.50;81.70
26164;DHT22;13914;48.178;11.716;2022-09-01T04:46:41;14.50;80.60
26164;DHT22;13914;48.178;11.716;2022-09-01T04:49:11;14.50;80.50
26164;DHT22;13914;48.178;11.716;2022-09-01T04:51:43;14.50;80.30
26164;DHT22;13914;48.178;11.716;2022-09-01T04:54:12;14.50;80.60
26164;DHT22;13914;48.178;11.716;2022-09-01T04:56:43;14.50;81.10
26164;DHT22;13914;48.178;11.716;2022-09-01T04:59:12;14.50;80.30
26164;DHT22;13914;48.178;11.716;2022-09-01T05:01:40;14.40;80.50
26164;DHT22;13914;48.178;11.716;2022-09-01T05:04:19;14.40;80.40
26164;DHT22;13914;48.178;11.716;2022-09-01T05:06:50;14.40;80.60
26164;DHT22;13914;48.178;11.716;2022-09-01T05:09:24;14.40;80.10
26164;DHT22;13914;48.178;11.716;2022-09-01T05:11:54;14.40;80.80
26164;DHT22;13914;48.178;11.716;2022-09-01T05:14:22;14.40;80.90
26164;DHT22;13914;48.178;11.716;2022-09-01T05:16:49;14.40;80.10
26164;DHT22;13914;48.178;11.716;2022-09-01T05:19:18;14.40;80.30
26164;DHT22;13914;48.178;11.716;2022-09-01T05:21:46;14.40;80.10
26164;DHT22;13914;48.178;11.716;2022-09-01T05:24:19;14.40;80.00
26164;DHT22;13914;48.178;11.716;2022-09-01T05:26:47;14.40;79.90
26164;DHT22;13914;48.178;11.716;2022-09-01T05:29:13;14.50;79.70
26164;DHT22;13914;48.178;11.716;2022-09-01T05:31:44;14.40;79.80
26164;DHT22;13914;48.178;11.716;2022-09-01T05:34:12;14.50;80.20
26164;DHT22;13914;48.178;11.716;2022-09-01T05:36:42;14.40;79.70
26164;DHT22;13914;48.178;11.716;2022-09-01T05:39:09;14.50;79.70
26164;DHT22;13914;48.178;11.716;2022-09-01T05:41:39;14.50;79.90
26164;DHT22;13914;48.178;11.716;2022-09-01T05:44:06;14.50;79.70
26164;DHT22;13914;48.178;11.716;2022-09-01T05:46:34;14.50;79.90
26164;DHT22;13914;48.178;11.716;2022-09-01T05:49:01;14.50;79.70
26164;DHT22;13914;48.178;11.716;2022-09-01T05:51:29;14.50;79.80
26164;DHT22;13914;48.178;11.716;2022-09-01T05:53:58;14.60;79.80
26164;DHT22;13914;48.178;11.716;2022-09-01T05:56:25;14.50;79.90
26164;DHT22;13914;48.178;11.716;2022-09-01T05:58:52;14.60;79.90
26164;DHT22;13914;48.178;11.716;2022-09-01T06:01:22;14.60;79.90
26164;DHT22;13914;48.178;11.716;2022-09-01T06:03:55;14.60;79.80
26164;DHT22;13914;48.178;11.716;2022-09-01T06:06:27;14.60;79.90
26164;DHT22;13914;48.178;11.716;2022-09-01T06:08:56;14.70;79.90
26164;DHT22;13914;48.178;11.716;2022-09-01T06:11:24;14.70;80.00
26164;DHT22;13914;48.178;11.716;2022-09-01T06:13:52;14.70;80.10
26164;DHT22;13914;48.178;11.716;2022-09-01T06:16:22;14.80;80.00
26164;DHT22;13914;48.178;11.716;2022-09-01T06:18:49;14.70;80.00
26164;DHT22;13914;48.178;11.716;2022-09-01T06:21:18;14.80;80.10
26164;DHT22;13914;48.178;11.716;2022-09-01T06:23:46;14.80;79.70
26164;DHT22;13914;48.178;11.716;2022-09-01T06:26:35;14.80;79.60
26164;DHT22;13914;48.178;11.716;2022-09-01T06:29:08;14.80;79.60
26164;DHT22;13914;48.178;11.716;2022-09-01T06:31:35;14.90;80.00
26164;DHT22;13914;48.178;11.716;2022-09-01T06:34:05;14.90;79.90
26164;DHT22;13914;48.178;11.716;2022-09-01T06:36:37;14.90;80.00
26164;DHT22;13914;48.178;11.716;2022-09-01T06:39:06;14.90;79.70
26164;DHT22;13914;48.178;11.716;2022-09-01T06:41:32;14.90;79.90
26164;DHT22;13914;48.178;11.716;2022-09-01T06:43:59;14.90;80.20
26164;DHT22;13914;48.178;11.716;2022-09-01T06:46:25;15.00;80.00
26164;DHT22;13914;48.178;11.716;2022-09-01T06:48:54;15.00;80.40
26164;DHT22;13914;48.178;11.716;2022-09-01T06:51:24;15.00;80.00
26164;DHT22;13914;48.178;11.716;2022-09-01T06:53:53;15.00;80.30
26164;DHT22;13914;48.178;11.716;2022-09-01T06:56:25;15.10;80.20
26164;DHT22;13914;48.178;11.716;2022-09-01T06:58:56;15.10;80.20
26164;DHT22;13914;48.178;11.716;2022-09-01T07:01:22;15.10;80.20
26164;DHT22;13914;48.178;11.716;2022-09-01T07:03:50;15.10;80.20
26164;DHT22;13914;48.178;11.716;2022-09-01T07:06:19;15.10;80.30
26164;DHT22;13914;48.178;11.716;2022-09-01T07:08:56;15.20;80.50
26164;DHT22;13914;48.178;11.716;2022-09-01T07:11:26;15.20;80.40
26164;DHT22;13914;48.178;11.716;2022-09-01T07:14:05;15.30;80.00
26164;DHT22;13914;48.178;11.716;2022-09-01T07:16:34;15.30;79.90
26164;DHT22;13914;48.178;11.716;2022-09-01T07:19:06;15.30;79.70
26164;DHT22;13914;48.178;11.716;2022-09-01T07:21:40;15.40;79.90
26164;DHT22;13914;48.178;11.716;2022-09-01T07:24:08;15.40;80.20
26164;DHT22;13914;48.178;11.716;2022-09-01T07:26:36;15.50;80.20
26164;DHT22;13914;48.178;11.716;2022-09-01T07:29:04;15.50;80.00
26164;DHT22;13914;48.178;11.716;2022-09-01T07:31:34;15.50;79.90
26164;DHT22;13914;48.178;11.716;2022-09-01T07:34:07;15.60;80.00
26164;DHT22;13914;48.178;11.716;2022-09-01T07:36:41;15.60;79.80
26164;DHT22;13914;48.178;11.716;2022-09-01T07:39:09;15.70;79.80
26164;DHT22;13914;48.178;11.716;2022-09-01T07:41:36;15.70;79.70
26164;DHT22;13914;48.178;11.716;2022-09-01T07:44:07;15.70;79.90
26164;DHT22;13914;48.178;11.716;2022-09-01T07:46:38;15.80;79.70
26164;DHT22;13914;48.178;11.716;2022-09-01T07:49:05;15.80;79.80
26164;DHT22;13914;48.178;11.716;2022-09-01T07:51:31;15.90;79.90
26164;DHT22;13914;48.178;11.716;2022-09-01T07:53:59;15.90;79.90
26164;DHT22;13914;48.178;11.716;2022-09-01T07:56:29;16.00;79.90
26164;DHT22;13914;48.178;11.716;2022-09-01T07:58:56;16.00;79.80
26164;DHT22;13914;48.178;11.716;2022-09-01T08:01:25;16.00;79.50
26164;DHT22;13914;48.178;11.716;2022-09-01T08:03:58;16.10;79.70
26164;DHT22;13914;48.178;11.716;2022-09-01T08:06:26;16.20;79.60
26164;DHT22;13914;48.178;11.716;2022-09-01T08:08:54;16.20;79.50
26164;DHT22;13914;48.178;11.716;2022-09-01T08:11:28;16.30;79.40
26164;DHT22;13914;48.178;11.716;2022-09-01T08:13:56;16.40;79.30
26164;DHT22;13914;48.178;11.716;2022-09-01T08:16:26;16.50;79.40
26164;DHT22;13914;48.178;11.716;2022-09-01T08:18:53;16.50;79.60
26164;DHT22;13914;48.178;11.716;2022-09-01T08:21:20;16.70;79.40
26164;DHT22;13914;48.178;11.716;2022-09-01T08:23:51;16.70;79.30
26164;DHT22;13914;48.178;11.716;2022-09-01T08:26:20;16.80;79.30
26164;DHT22;13914;48.178;11.716;2022-09-01T08:28:48;16.80;79.20
26164;DHT22;13914;48.178;11.716;2022-09-01T08:31:15;16.90;79.10
26164;DHT22;13914;48.178;11.716;2022-09-01T08:33:44;17.00;79.10
26164;DHT22;13914;48.178;11.716;2022-09-01T08:36:13;17.10;78.90
26164;DHT22;13914;48.178;11.716;2022-09-01T08:38:40;17.10;78.80
26164;DHT22;13914;48.178;11.716;2022-09-01T08:41:12;17.20;78.70
26164;DHT22;13914;48.178;11.716;2022-09-01T08:44:01;17.20;78.80
26164;DHT22;13914;48.178;11.716;2022-09-01T08:46:37;17.30;78.70
26164;DHT22;13914;48.178;11.716;2022-09-01T08:49:24;17.30;78.60
26164;DHT22;13914;48.178;11.716;2022-09-01T08:57:42;17.40;78.40
26164;DHT22;13914;48.178;11.716;2022-09-01T09:00:12;17.40;78.50
26164;DHT22;13914;48.178;11.716;2022-09-01T09:06:01;17.50;78.30
26164;DHT22;13914;48.178;11.716;2022-09-01T09:14:49;17.60;77.70
26164;DHT22;13914;48.178;11.716;2022-09-01T09:17:36;17.70;78.00
26164;DHT22;13914;48.178;11.716;2022-09-01T09:20:06;17.80;77.30
26164;DHT22;13914;48.178;11.716;2022-09-01T09:22:32;17.80;77.40
26164;DHT22;13914;48.178;11.716;2022-09-01T09:25:10;17.90;76.80
26164;DHT22;13914;48.178;11.716;2022-09-01T09:27:46;17.90;77.30
26164;DHT22;13914;48.178;11.716;2022-09-01T09:30:26;18.00;76.90
26164;DHT22;13914;48.178;11.716;2022-09-01T09:32:59;18.10;76.90
26164;DHT22;13914;48.178;11.716;2022-09-01T09:35:42;18.20;76.60
26164;DHT22;13914;48.178;11.716;2022-09-01T09:41:03;18.30;75.30
26164;DHT22;13914;48.178;11.716;2022-09-01T09:43:57;18.50;76.20
26164;DHT22;13914;48.178;11.716;2022-09-01T09:46:41;18.60;75.20
26164;DHT22;13914;48.178;11.716;2022-09-01T09:51:56;18.70;74.40
26164;DHT22;13914;48.178;11.716;2022-09-01T09:54:40;18.80;74.80
26164;DHT22;13914;48.178;11.716;2022-09-01T09:57:29;18.90;74.70
26164;DHT22;13914;48.178;11.716;2022-09-01T10:00:17;19.00;74.20
26164;DHT22;13914;48.178;11.716;2022-09-01T10:03:04;19.10;72.00
26164;DHT22;13914;48.178;11.716;2022-09-01T10:05:47;19.20;71.80
26164;DHT22;13914;48.178;11.716;2022-09-01T10:10:59;19.40;72.40
26164;DHT22;13914;48.178;11.716;2022-09-01T10:13:26;19.40;72.50
26164;DHT22;13914;48.178;11.716;2022-09-01T10:15:59;19.50;72.80
26164;DHT22;13914;48.178;11.716;2022-09-01T10:18:41;19.60;71.70
26164;DHT22;13914;48.178;11.716;2022-09-01T10:21:20;19.60;71.50
26164;DHT22;13914;48.178;11.716;2022-09-01T10:23:50;19.70;72.20
26164;DHT22;13914;48.178;11.716;2022-09-01T10:26:31;19.70;70.50
26164;DHT22;13914;48.178;11.716;2022-09-01T10:29:31;19.80;71.10
26164;DHT22;13914;48.178;11.716;2022-09-01T10:32:10;19.80;70.10
26164;DHT22;13914;48.178;11.716;2022-09-01T10:34:41;19.90;69.50
26164;DHT22;13914;48.178;11.716;2022-09-01T10:37:07;20.00;69.10
26164;DHT22;13914;48.178;11.716;2022-09-01T10:39:34;20.10;70.20
26164;DHT22;13914;48.178;11.716;2022-09-01T10:42:41;20.20;70.70
26164;DHT22;13914;48.178;11.716;2022-09-01T10:45:18;20.30;71.00
26164;DHT22;13914;48.178;11.716;2022-09-01T10:47:46;20.40;69.30
26164;DHT22;13914;48.178;11.716;2022-09-01T10:50:28;20.40;68.20
26164;DHT22;13914;48.178;11.716;2022-09-01T10:53:06;20.50;69.90
26164;DHT22;13914;48.178;11.716;2022-09-01T10:55:44;20.50;67.00
26164;DHT22;13914;48.178;11.716;2022-09-01T10:58:29;20.50;69.50
26164;DHT22;13914;48.178;11.716;2022-09-01T11:04:14;20.80;70.00
26164;DHT22;13914;48.178;11.716;2022-09-01T11:17:58;21.10;66.30
26164;DHT22;13914;48.178;11.716;2022-09-01T11:20:36;21.20;65.30
26164;DHT22;13914;48.178;11.716;2022-09-01T11:23:07;21.30;64.10
26164;DHT22;13914;48.178;11.716;2022-09-01T11:44:49;21.70;66.30
26164;DHT22;13914;48.178;11.716;2022-09-01T11:47:31;21.80;67.00
26164;DHT22;13914;48.178;11.716;2022-09-01T11:50:03;21.90;64.50
26164;DHT22;13914;48.178;11.716;2022-09-01T11:52:33;22.00;66.30
26164;DHT22;13914;48.178;11.716;2022-09-01T11:55:01;22.10;65.90
26164;DHT22;13914;48.178;11.716;2022-09-01T11:57:31;22.20;66.40
26164;DHT22;13914;48.178;11.716;2022-09-01T12:00:12;22.30;64.10
26164;DHT22;13914;48.178;11.716;2022-09-01T12:02:47;22.30;64.70
26164;DHT22;13914;48.178;11.716;2022-09-01T12:05:33;22.40;65.40
26164;DHT22;13914;48.178;11.716;2022-09-01T12:08:14;22.40;65.00
26164;DHT22;13914;48.178;11.716;2022-09-01T12:10:45;22.40;64.90
26164;DHT22;13914;48.178;11.716;2022-09-01T12:13:22;22.50;65.80
26164;DHT22;13914;48.178;11.716;2022-09-01T12:15:57;22.50;64.60
26164;DHT22;13914;48.178;11.716;2022-09-01T12:18:44;22.50;63.80
26164;DHT22;13914;48.178;11.716;2022-09-01T12:21:32;22.50;65.20
26164;DHT22;13914;48.178;11.716;2022-09-01T12:24:19;22.60;63.70
26164;DHT22;13914;48.178;11.716;2022-09-01T12:26:49;22.60;64.30
26164;DHT22;13914;48.178;11.716;2022-09-01T12:29:17;22.70;65.80
26164;DHT22;13914;48.178;11.716;2022-09-01T12:31:45;22.70;64.30
26164;DHT22;13914;48.178;11.716;2022-09-01T12:37:03;22.60;65.40
26164;DHT22;13914;48.178;11.716;2022-09-01T12:39:41;22.60;65.30
26164;DHT22;13914;48.178;11.716;2022-09-01T12:44:53;22.70;61.90
26164;DHT22;13914;48.178;11.716;2022-09-01T12:49:59;22.70;65.60
26164;DHT22;13914;48.178;11.716;2022-09-01T12:52:26;22.70;64.80
26164;DHT22;13914;48.178;11.716;2022-09-01T12:57:37;22.70;63.10
26164;DHT22;13914;48.178;11.716;2022-09-01T13:02:39;22.70;60.30
26164;DHT22;13914;48.178;11.716;2022-09-01T13:10:52;22.60;59.90
26164;DHT22;13914;48.178;11.716;2022-09-01T13:13:21;22.60;60.70
26164;DHT22;13914;48.178;11.716;2022-09-01T13:15:53;22.60;63.40
26164;DHT22;13914;48.178;11.716;2022-09-01T13:18:23;22.60;64.60
26164;DHT22;13914;48.178;11.716;2022-09-01T13:20:50;22.70;65.10
26164;DHT22;13914;48.178;11.716;2022-09-01T13:23:18;22.70;63.40
26164;DHT22;13914;48.178;11.716;2022-09-01T13:25:44;22.70;61.60
26164;DHT22;13914;48.178;11.716;2022-09-01T13:28:12;22.70;60.10
26164;DHT22;13914;48.178;11.716;2022-09-01T13:30:39;22.60;64.00
26164;DHT22;13914;48.178;11.716;2022-09-01T13:33:06;22.70;65.00
26164;DHT22;13914;48.178;11.716;2022-09-01T13:35:32;22.70;65.00
26164;DHT22;13914;48.178;11.716;2022-09-01T13:37:57;22.70;61.30
26164;DHT22;13914;48.178;11.716;2022-09-01T13:40:23;22.60;59.60
26164;DHT22;13914;48.178;11.716;2022-09-01T13:42:52;22.60;59.80
26164;DHT22;13914;48.178;11.716;2022-09-01T13:45:22;22.60;61.10
26164;DHT22;13914;48.178;11.716;2022-09-01T13:47:52;22.60;62.60
26164;DHT22;13914;48.178;11.716;2022-09-01T13:50:20;22.60;62.20
26164;DHT22;13914;48.178;11.716;2022-09-01T13:52:55;22.50;60.70
26164;DHT22;13914;48.178;11.716;2022-09-01T13:55:27;22.50;64.20
26164;DHT22;13914;48.178;11.716;2022-09-01T13:57:54;22.60;64.90
26164;DHT22;13914;48.178;11.716;2022-09-01T14:00:24;22.60;64.70
26164;DHT22;13914;48.178;11.716;2022-09-01T14:02:55;22.60;64.60
26164;DHT22;13914;48.178;11.716;2022-09-01T14:05:29;22.60;64.90
26164;DHT22;13914;48.178;11.716;2022-09-01T14:07:58;22.60;63.40
26164;DHT22;13914;48.178;11.716;2022-09-01T14:10:26;22.60;64.20
26164;DHT22;13914;48.178;11.716;2022-09-01T14:12:53;22.60;65.00
26164;DHT22;13914;48.178;11.716;2022-09-01T14:15:20;22.60;65.00
26164;DHT22;13914;48.178;11.716;2022-09-01T14:17:48;22.60;65.00
26164;DHT22;13914;48.178;11.716;2022-09-01T14:20:18;22.60;64.90
26164;DHT22;13914;48.178;11.716;2022-09-01T14:22:46;22.60;65.00
26164;DHT22;13914;48.178;11.716;2022-09-01T14:25:13;22.60;64.90
26164;DHT22;13914;48.178;11.716;2022-09-01T14:27:40;22.60;64.30
26164;DHT22;13914;48.178;11.716;2022-09-01T14:30:09;22.50;61.90
26164;DHT22;13914;48.178;11.716;2022-09-01T14:32:37;22.50;63.00
26164;DHT22;13914;48.178;11.716;2022-09-01T14:35:04;22.50;60.30
26164;DHT22;13914;48.178;11.716;2022-09-01T14:37:33;22.40;61.80
26164;DHT22;13914;48.178;11.716;2022-09-01T14:40:01;22.40;62.20
26164;DHT22;13914;48.178;11.716;2022-09-01T14:42:28;22.40;62.40
26164;DHT22;13914;48.178;11.716;2022-09-01T14:44:55;22.40;62.00
26164;DHT22;13914;48.178;11.716;2022-09-01T14:47:21;22.30;59.70
26164;DHT22;13914;48.178;11.716;2022-09-01T14:49:49;22.30;61.00
26164;DHT22;13914;48.178;11.716;2022-09-01T14:52:16;22.30;60.60
26164;DHT22;13914;48.178;11.716;2022-09-01T14:54:42;22.30;61.10
26164;DHT22;13914;48.178;11.716;2022-09-01T14:57:09;22.20;62.20
26164;DHT22;13914;48.178;11.716;2022-09-01T14:59:35;22.20;59.80
26164;DHT22;13914;48.178;11.716;2022-09-01T15:02:03;22.20;59.20
26164;DHT22;13914;48.178;11.716;2022-09-01T15:04:29;22.10;60.90
26164;DHT22;13914;48.178;11.716;2022-09-01T15:06:56;22.20;62.00
26164;DHT22;13914;48.178;11.716;2022-09-01T15:09:22;22.20;62.00
26164;DHT22;13914;48.178;11.716;2022-09-01T15:11:48;22.20;62.20
26164;DHT22;13914;48.178;11.716;2022-09-01T15:14:14;22.10;59.00
26164;DHT22;13914;48.178;11.716;2022-09-01T15:16:40;22.10;59.10
26164;DHT22;13914;48.178;11.716;2022-09-01T15:19:10;22.00;60.90
26164;DHT22;13914;48.178;11.716;2022-09-01T15:21:38;22.00;61.80
26164;DHT22;13914;48.178;11.716;2022-09-01T15:24:07;22.10;61.70
26164;DHT22;13914;48.178;11.716;2022-09-01T15:26:34;22.00;61.30
26164;DHT22;13914;48.178;11.716;2022-09-01T15:29:00;22.00;60.70
26164;DHT22;13914;48.178;11.716;2022-09-01T15:31:27;22.00;60.30
26164;DHT22;13914;48.178;11.716;2022-09-01T15:33:56;21.90;60.60
26164;DHT22;13914;48.178;11.716;2022-09-01T15:36:24;21.80;61.40
26164;DHT22;13914;48.178;11.716;2022-09-01T15:38:51;21.80;61.80
26164;DHT22;13914;48.178;11.716;2022-09-01T15:41:24;21.80;61.10
26164;DHT22;13914;48.178;11.716;2022-09-01T15:43:55;21.70;61.80
26164;DHT22;13914;48.178;11.716;2022-09-01T15:46:22;21.70;61.90
26164;DHT22;13914;48.178;11.716;2022-09-01T15:49:00;21.60;62.10
26164;DHT22;13914;48.178;11.716;2022-09-01T15:51:37;21.70;61.50
26164;DHT22;13914;48.178;11.716;2022-09-01T15:54:17;21.60;62.20
26164;DHT22;13914;48.178;11.716;2022-09-01T15:56:44;21.50;62.50
26164;DHT22;13914;48.178;11.716;2022-09-01T15:59:11;21.50;63.10
26164;DHT22;13914;48.178;11.716;2022-09-01T16:01:40;21.50;61.90
26164;DHT22;13914;48.178;11.716;2022-09-01T16:04:10;21.50;62.60
26164;DHT22;13914;48.178;11.716;2022-09-01T16:06:38;21.40;62.40
26164;DHT22;13914;48.178;11.716;2022-09-01T16:09:05;21.40;62.70
26164;DHT22;13914;48.178;11.716;2022-09-01T16:11:31;21.30;62.60
26164;DHT22;13914;48.178;11.716;2022-09-01T16:13:58;21.30;62.50
26164;DHT22;13914;48.178;11.716;2022-09-01T16:24:52;21.10;63.20
26164;DHT22;13914;48.178;11.716;2022-09-01T16:27:28;21.10;63.00
26164;DHT22;13914;48.178;11.716;2022-09-01T16:30:03;21.10;63.00
26164;DHT22;13914;48.178;11.716;2022-09-01T16:32:32;21.00;63.00
26164;DHT22;13914;48.178;11.716;2022-09-01T16:35:00;21.00;63.30
26164;DHT22;13914;48.178;11.716;2022-09-01T16:49:33;20.70;62.50
26164;DHT22;13914;48.178;11.716;2022-09-01T16:52:01;20.70;61.90
26164;DHT22;13914;48.178;11.716;2022-09-01T16:54:54;20.70;62.10
26164;DHT22;13914;48.178;11.716;2022-09-01T17:00:09;20.60;63.20
26164;DHT22;13914;48.178;11.716;2022-09-01T17:05:47;20.50;63.50
26164;DHT22;13914;48.178;11.716;2022-09-01T17:08:21;20.50;63.60
26164;DHT22;13914;48.178;11.716;2022-09-01T17:11:21;20.40;63.80
26164;DHT22;13914;48.178;11.716;2022-09-01T17:13:52;20.40;63.90
26164;DHT22;13914;48.178;11.716;2022-09-01T17:16:37;20.40;63.90
26164;DHT22;13914;48.178;11.716;2022-09-01T17:19:09;20.30;63.80
26164;DHT22;13914;48.178;11.716;2022-09-01T17:21:42;20.30;64.00
26164;DHT22;13914;48.178;11.716;2022-09-01T17:24:30;20.20;63.30
26164;DHT22;13914;48.178;11.716;2022-09-01T17:27:05;20.20;64.10